»·PEaware :: N9401L KRNO-KSMF

N9401L :: KRNO-KSMF

FLIGHT INFORMATION

Flight Status: Arrived
Operator: Privately registered:
United States
More flights under this callsign
Pilot: Dusty S. (32100)
Aircraft: CESSNA 172 SKYHAWK
(C172)
More flights by this aircraft type
Origin: KRNO Reno/Tahoe Intl
United States
Destination: KSMF Sacramento Intl
United States
More flights between these airports :: More routes between these airports
Route:
File this flight plan on PilotEdge
Remarks:
Altitude:
(Current/Filed)
0ft
Speed:
(Current/Filed)
0kts
Departed: 21-Nov-20 08:46 PM
Arrived: 21-Nov-20 09:51 PM
Distance/Time
Traveled:
98nm/1:05
Distance/Time
To Go:
Arrived

Flight Plot

Page will automatically refresh every two minutes.

Flight plan parsing failed; only flown route is shown


Map Options




Map Legend


Flown Route
Filed Route
Departure Airport
Arrival Airport
Navaid (VOR, NDB)
Fix

Horizontal Profiles

Position Reports

Time Latitude Longitude Heading Altitude Ground
Speed
21-Nov-20 20:37 39.508417 -119.765301 181 4419ft 0kts
21-Nov-20 20:38 39.508417 -119.765301 181 4419ft 0kts
21-Nov-20 20:39 39.506742 -119.765396 236 4419ft 7kts
21-Nov-20 20:40 39.508977 -119.765704 359 4419ft 10kts
21-Nov-20 20:41 39.512292 -119.765164 358 4419ft 13kts
21-Nov-20 20:42 39.513749 -119.765764 270 4419ft 0kts
21-Nov-20 20:43 39.513749 -119.765765 269 4419ft 0kts
21-Nov-20 20:44 39.513749 -119.765780 269 4419ft 0kts
21-Nov-20 20:45 39.507490 -119.766757 180 4432ft 81kts
21-Nov-20 20:46 39.486354 -119.771398 245 5219ft 78kts
21-Nov-20 20:47 39.487518 -119.799103 280 5916ft 79kts
21-Nov-20 20:48 39.492521 -119.827401 282 6581ft 81kts
21-Nov-20 20:49 39.497077 -119.855197 278 7225ft 79kts
21-Nov-20 20:50 39.499587 -119.885119 272 7774ft 86kts
21-Nov-20 20:51 39.495702 -119.915207 247 8323ft 89kts
21-Nov-20 20:52 39.483420 -119.942370 229 8884ft 87kts
21-Nov-20 20:53 39.466291 -119.965996 222 9381ft 90kts
21-Nov-20 20:54 39.446709 -119.986880 216 9870ft 91kts
21-Nov-20 20:55 39.428333 -120.009344 230 10331ft 91kts
21-Nov-20 20:56 39.413212 -120.035249 236 10766ft 91kts
21-Nov-20 20:57 39.397982 -120.062693 227 11182ft 91kts
21-Nov-20 20:58 39.381947 -120.088168 234 11617ft 85kts
21-Nov-20 20:59 39.368496 -120.114680 239 11960ft 88kts
21-Nov-20 21:00 39.356274 -120.143222 246 12264ft 92kts
21-Nov-20 21:01 39.343148 -120.178610 244 12163ft 113kts
21-Nov-20 21:02 39.331539 -120.215553 251 12046ft 110kts
21-Nov-20 21:03 39.318533 -120.249311 241 12063ft 102kts
21-Nov-20 21:04 39.304124 -120.282487 242 12024ft 102kts
21-Nov-20 21:05 39.291473 -120.316409 241 12091ft 93kts
21-Nov-20 21:06 39.277879 -120.347650 246 12104ft 95kts
21-Nov-20 21:07 39.266946 -120.380795 225 12112ft 97kts
21-Nov-20 21:08 39.245074 -120.403917 216 12161ft 94kts
21-Nov-20 21:09 39.225280 -120.430351 223 12184ft 94kts
21-Nov-20 21:10 39.204227 -120.454305 225 12205ft 95kts
21-Nov-20 21:11 39.191526 -120.485834 239 12225ft 95kts
21-Nov-20 21:12 39.177786 -120.516588 240 12252ft 95kts
21-Nov-20 21:13 39.164443 -120.549333 247 12200ft 100kts
21-Nov-20 21:14 39.150228 -120.583077 242 12201ft 98kts
21-Nov-20 21:15 39.136135 -120.617099 238 12184ft 99kts
21-Nov-20 21:16 39.120943 -120.650178 243 12166ft 99kts
21-Nov-20 21:17 39.106053 -120.680174 237 12159ft 99kts
21-Nov-20 21:18 39.092723 -120.711130 238 12147ft 99kts
21-Nov-20 21:19 39.078427 -120.741529 240 12142ft 99kts
21-Nov-20 21:20 39.065575 -120.772773 240 12135ft 99kts
21-Nov-20 21:21 39.055349 -120.805338 259 12127ft 99kts
21-Nov-20 21:22 39.041212 -120.833930 235 12210ft 89kts
21-Nov-20 21:23 39.028388 -120.859578 237 12261ft 87kts
21-Nov-20 21:24 39.015398 -120.885258 241 12316ft 85kts
21-Nov-20 21:25 39.003484 -120.911850 235 12342ft 86kts
21-Nov-20 21:26 38.991486 -120.938399 240 12379ft 86kts
21-Nov-20 21:27 38.980544 -120.967197 243 12333ft 94kts
21-Nov-20 21:28 38.965210 -120.994425 231 12364ft 94kts
21-Nov-20 21:29 38.953403 -121.025007 248 12322ft 100kts
21-Nov-20 21:30 38.942278 -121.057560 244 12313ft 99kts
21-Nov-20 21:31 38.929324 -121.088661 231 12307ft 99kts
21-Nov-20 21:32 38.913298 -121.117758 234 12299ft 99kts
21-Nov-20 21:33 38.899454 -121.148617 238 12288ft 99kts
21-Nov-20 21:34 38.884518 -121.178108 242 12281ft 98kts
21-Nov-20 21:35 38.870660 -121.208508 232 12269ft 99kts
21-Nov-20 21:36 38.854795 -121.237386 234 12262ft 99kts
21-Nov-20 21:37 38.841200 -121.268118 237 12252ft 99kts
21-Nov-20 21:38 38.829043 -121.299754 252 11864ft 99kts
21-Nov-20 21:39 38.820098 -121.333183 251 10811ft 99kts
21-Nov-20 21:40 38.810927 -121.366424 249 9757ft 99kts
21-Nov-20 21:41 38.799333 -121.399463 241 8641ft 101kts
21-Nov-20 21:43 38.785293 -121.431194 242 7488ft 102kts
21-Nov-20 21:44 38.771737 -121.464199 242 6145ft 115kts
21-Nov-20 21:45 38.755363 -121.498944 230 4670ft 115kts
21-Nov-20 21:46 38.738303 -121.495577 49 3622ft 105kts
21-Nov-20 21:47 38.739377 -121.518307 217 3096ft 110kts
21-Nov-20 21:48 38.722337 -121.546311 276 2149ft 97kts
21-Nov-20 21:49 38.725127 -121.575455 233 901ft 76kts
21-Nov-20 21:50 38.706543 -121.580068 180 134ft 63kts
21-Nov-20 21:51 38.696848 -121.581570 270 21ft 12kts
21-Nov-20 21:52 38.696886 -121.586253 272 23ft 19kts
21-Nov-20 21:53 38.697685 -121.591490 269 23ft 14kts
21-Nov-20 21:54 38.697746 -121.597136 271 23ft 15kts
21-Nov-20 21:55 38.693916 -121.598663 179 23ft 20kts
21-Nov-20 21:56 38.687237 -121.598786 182 20ft 24kts
21-Nov-20 21:57 38.681681 -121.597932 96 20ft 10kts
21-Nov-20 21:58 38.681339 -121.597716 180 20ft 0kts

Navigation Log

Ident Type
Flight plan parsing failed, navigation log unavailable